Winterthur, Switzerland
Current Conditions -  °F | °C
As of 12:50 PM on Monday 24 Nov 2014 (Local Time) from LSMD Reporting Station
Clear Clear  
Wind Chill: 55°   Ceiling: Unl
Heat Index: 55°   Visibility: 6mi
Dew Point: 46°   Wind: 3mph
Humidity: 72%   Direction: 170°S
Pressure: 30.21"   Gusts: NA
Location:  47.51°N, 8.72°E
Report Text: LSMD 241150Z 17003KT 120V220 CAVOK 13/08 Q1023 RMK BLU
Loading
Personal Weather Stations






























Interactive Weather Map New forecast layout! Learn more

10-Day Weather Forecast

Advertisements
Track Severe Weather on mobile